Time;durP1;ratioP1;P1;durP2;ratioP2;P2;SDS_P1;SDS_P2;PMS_P1;PMS_P2;Temp;Humidity;BMP_temperature;BMP_pressure;BME280_temperature;BME280_humidity;BME280_pressure;Samples;Min_cycle;Max_cycle;Signal;HPM_P1;HPM_P2
2022/02/16 00:01:12;;;;;;;171.80;75.20;;;;;;;2.14;80.17;98221.70;105793;1280;22554;-73
2022/02/16 00:03:38;;;;;;;161.80;70.50;;;;;;;2.14;80.12;98222.56;105621;1280;138777;-73
2022/02/16 00:06:06;;;;;;;154.60;67.30;;;;;;;2.15;80.15;98219.56;105843;1279;24431;-73
2022/02/16 00:08:33;;;;;;;137.00;64.40;;;;;;;2.15;80.00;98216.25;105835;1281;22545;-74
2022/02/16 00:11:00;;;;;;;141.70;63.20;;;;;;;2.11;80.03;98214.36;105732;1281;137776;-73
2022/02/16 00:13:27;;;;;;;147.80;65.30;;;;;;;2.09;80.00;98208.58;106016;1281;24276;-73
2022/02/16 00:15:54;;;;;;;149.60;66.30;;;;;;;2.05;80.00;98200.77;105803;1280;137895;-73
2022/02/16 00:18:21;;;;;;;117.70;56.40;;;;;;;2.03;80.00;98195.31;105748;1280;22761;-73
2022/02/16 00:20:48;;;;;;;123.70;56.10;;;;;;;2.04;80.21;98193.42;105829;1281;25383;-73
2022/02/16 00:23:15;;;;;;;108.90;52.70;;;;;;;2.06;80.33;98199.39;105649;1281;137864;-74
2022/02/16 00:25:42;;;;;;;116.40;53.20;;;;;;;2.09;80.37;98197.98;105794;1279;22669;-74
2022/02/16 00:28:09;;;;;;;135.40;61.30;;;;;;;2.07;79.90;98203.98;105826;1280;138101;-74
2022/02/16 00:30:36;;;;;;;128.20;58.60;;;;;;;1.98;79.33;98202.46;105890;1281;25276;-73
2022/02/16 00:33:03;;;;;;;130.50;58.70;;;;;;;1.95;79.68;98199.96;105913;1281;22601;-73
2022/02/16 00:35:30;;;;;;;129.10;58.90;;;;;;;1.93;80.00;98196.31;105755;1280;138278;-73
2022/02/16 00:37:57;;;;;;;124.30;58.40;;;;;;;1.93;80.22;98198.09;105920;1279;22583;-73
2022/02/16 00:40:24;;;;;;;120.50;55.20;;;;;;;1.95;80.46;98197.95;105793;1280;138829;-74
2022/02/16 00:42:51;;;;;;;122.80;56.20;;;;;;;1.99;80.56;98199.95;105843;1280;22563;-73
2022/02/16 00:45:18;;;;;;;119.10;54.80;;;;;;;2.02;80.85;98197.74;105815;1279;22591;-73
2022/02/16 00:47:47;;;;;;;112.00;53.40;;;;;;;2.06;80.82;98192.58;105680;1281;137680;-73
2022/02/16 00:50:14;;;;;;;110.40;49.10;;;;;;;2.11;80.71;98194.66;105982;1280;22597;-73
2022/02/16 00:52:41;;;;;;;111.90;52.10;;;;;;;2.14;80.81;98191.75;105975;1280;138062;-73
2022/02/16 00:55:10;;;;;;;107.00;51.10;;;;;;;2.19;80.85;98190.41;105826;1281;22719;-73
2022/02/16 00:57:36;;;;;;;104.10;49.70;;;;;;;2.23;80.70;98185.10;105832;1280;138549;-73
2022/02/16 01:00:05;;;;;;;99.50;47.10;;;;;;;2.26;80.69;98182.55;105892;1281;24069;-73
2022/02/16 01:02:37;;;;;;;96.30;47.20;;;;;;;2.28;80.68;98178.48;105873;1280;22583;-73
2022/02/16 01:05:05;;;;;;;108.90;50.60;;;;;;;2.32;80.74;98176.60;105647;1281;137808;-73
2022/02/16 01:07:32;;;;;;;103.80;51.00;;;;;;;2.31;80.64;98173.82;106093;1280;24383;-74
2022/02/16 01:10:03;;;;;;;104.80;50.10;;;;;;;2.31;80.57;98178.52;105840;1281;137775;-73
2022/02/16 01:12:30;;;;;;;96.20;46.10;;;;;;;2.32;80.47;98177.95;106038;1279;22829;-73
2022/02/16 01:14:57;;;;;;;107.50;49.40;;;;;;;2.34;80.45;98176.52;105967;1281;24295;-73
2022/02/16 01:17:24;;;;;;;106.80;47.60;;;;;;;2.35;80.54;98174.54;105770;1280;138290;-73
2022/02/16 01:19:58;;;;;;;103.70;47.30;;;;;;;2.35;80.54;98165.48;105958;1280;22625;-73
2022/02/16 01:22:28;;;;;;;91.50;46.30;;;;;;;2.34;80.52;98156.22;105956;1280;138096;-73
2022/02/16 01:24:55;;;;;;;101.00;47.90;;;;;;;2.35;80.60;98157.22;105800;1280;22670;-73
2022/02/16 01:27:23;;;;;;;103.10;49.10;;;;;;;2.34;80.53;98155.39;105764;1279;137961;-73
2022/02/16 01:29:53;;;;;;;99.10;48.10;;;;;;;2.36;80.59;98154.95;105938;1280;23015;-73
2022/02/16 01:32:26;;;;;;;102.10;45.60;;;;;;;2.37;80.63;98150.45;105945;1281;22575;-73
2022/02/16 01:34:53;;;;;;;86.20;44.00;;;;;;;2.41;80.81;98149.55;105708;1280;137677;-73
2022/02/16 01:37:20;;;;;;;85.60;42.80;;;;;;;2.45;80.77;98146.96;105755;1282;23930;-73
2022/02/16 01:39:47;;;;;;;90.00;43.90;;;;;;;2.48;80.91;98141.89;105787;1281;137927;-73
2022/02/16 01:42:18;;;;;;;91.30;44.90;;;;;;;2.49;80.77;98142.61;105889;1280;22556;-73
2022/02/16 01:44:49;;;;;;;93.60;45.30;;;;;;;2.52;80.81;98135.66;105931;1280;22554;-73
2022/02/16 01:47:17;;;;;;;97.40;45.10;;;;;;;2.53;80.53;98132.39;106017;1281;138150;-73
2022/02/16 01:49:46;;;;;;;;;;;;;;;2.55;80.52;98127.37;106151;1280;23277;-73
2022/02/16 01:52:14;;;;;;;84.70;39.90;;;;;;;2.58;80.59;98122.82;105666;1280;123615;-73
2022/02/16 01:54:46;;;;;;;98.40;45.30;;;;;;;2.60;80.66;98113.65;105736;1281;22554;-73
2022/02/16 01:57:13;;;;;;;98.00;45.80;;;;;;;2.61;80.65;98105.38;106041;1280;24231;-73
2022/02/16 01:59:47;;;;;;;94.00;43.40;;;;;;;2.62;80.69;98099.67;105841;1281;137883;-73
2022/02/16 02:02:34;;;;;;;107.50;49.00;;;;;;;2.63;80.62;98096.91;105930;1281;23768;-73
2022/02/16 02:05:11;;;;;;;100.30;46.90;;;;;;;2.65;80.75;98100.11;105729;1280;138611;-73
2022/02/16 02:07:42;;;;;;;93.20;43.50;;;;;;;2.67;80.57;98101.92;106023;1281;24288;-73
2022/02/16 02:10:10;;;;;;;90.00;43.30;;;;;;;2.69;80.65;98105.48;105767;1280;137695;-73
2022/02/16 02:12:45;;;;;;;98.00;49.60;;;;;;;2.69;80.46;98100.31;105839;1280;22675;-73
2022/02/16 02:15:14;;;;;;;107.60;49.50;;;;;;;2.65;80.12;98095.02;105855;1280;25282;-73
2022/02/16 02:17:52;;;;;;;104.10;50.30;;;;;;;2.61;80.09;98090.41;105882;1280;138367;-73
2022/02/16 02:20:21;;;;;;;106.40;52.80;;;;;;;2.53;79.45;98089.98;105790;1280;23383;-73
2022/02/16 02:22:50;;;;;;;114.60;53.00;;;;;;;2.38;78.81;98088.40;105947;1280;137786;-74
2022/02/16 02:25:17;;;;;;;111.80;56.40;;;;;;;2.22;78.84;98085.24;105672;1281;22683;-73
2022/02/16 02:27:44;;;;;;;113.50;51.40;;;;;;;2.11;79.01;98086.89;105708;1280;138656;-73
2022/02/16 02:30:13;;;;;;;99.80;49.10;;;;;;;2.02;79.17;98084.55;105849;1281;25265;-73
2022/02/16 02:32:44;;;;;;;102.50;46.10;;;;;;;1.99;79.35;98087.83;105932;1281;24189;-73
2022/02/16 02:35:14;;;;;;;99.70;46.40;;;;;;;1.95;79.67;98095.61;105819;1280;138524;-73
2022/02/16 02:37:42;;;;;;;96.80;47.30;;;;;;;1.89;80.12;98090.92;106028;1277;22582;-73
2022/02/16 02:40:10;;;;;;;104.50;49.00;;;;;;;1.85;80.30;98090.69;105696;1280;137675;-73
2022/02/16 02:42:40;;;;;;;96.40;46.70;;;;;;;1.82;80.15;98090.29;105846;1280;25349;-73
2022/02/16 02:45:10;;;;;;;;;;;;;;;1.78;80.13;98087.25;106023;1280;25253;-75
2022/02/16 02:47:37;;;;;;;99.60;46.10;;;;;;;1.74;80.13;98086.54;106084;1279;123590;-74
2022/02/16 02:50:06;;;;;;;102.40;47.40;;;;;;;1.69;80.25;98083.70;105992;1281;22562;-74
2022/02/16 02:52:36;;;;;;;110.60;48.60;;;;;;;1.65;80.55;98084.20;105676;1281;137872;-74
2022/02/16 02:55:06;;;;;;;110.60;50.10;;;;;;;1.64;80.74;98086.80;105916;1280;22786;-76
2022/02/16 02:57:33;;;;;;;102.20;51.10;;;;;;;1.60;80.73;98087.97;105802;1280;138030;-74
2022/02/16 03:00:03;;;;;;;98.70;49.10;;;;;;;1.60;80.93;98084.51;106244;1279;30291;-74
2022/02/16 03:02:31;;;;;;;103.60;48.00;;;;;;;1.61;81.07;98085.83;105939;1280;24307;-74
2022/02/16 03:04:58;;;;;;;100.50;46.60;;;;;;;1.59;81.02;98087.47;105606;1280;138310;-73
2022/02/16 03:07:25;;;;;;;95.90;47.60;;;;;;;1.57;81.13;98082.18;105670;1281;25238;-73
2022/02/16 03:09:52;;;;;;;100.20;47.40;;;;;;;1.56;81.27;98082.16;105372;1281;137853;-76
2022/02/16 03:12:19;;;;;;;110.00;50.20;;;;;;;1.56;81.38;98081.26;105684;1281;24235;-73
2022/02/16 03:14:46;;;;;;;111.00;52.30;;;;;;;1.54;81.51;98082.03;105677;1281;25266;-72
2022/02/16 03:17:13;;;;;;;101.80;50.40;;;;;;;1.55;81.48;98076.69;105767;1280;138153;-74
2022/02/16 03:19:40;;;;;;;97.00;45.80;;;;;;;1.59;81.83;98076.78;105837;1279;24200;-73
2022/02/16 03:22:08;;;;;;;99.00;46.20;;;;;;;1.61;82.02;98079.31;105697;1280;138159;-73
2022/02/16 03:24:36;;;;;;;102.20;48.10;;;;;;;1.64;82.18;98083.59;106039;1280;22593;-72
2022/02/16 03:27:04;;;;;;;100.00;47.10;;;;;;;1.67;82.40;98083.60;105902;1280;25268;-73
2022/02/16 03:29:55;;;;;;;96.00;46.80;;;;;;;1.73;82.63;98084.21;105850;1279;138293;-74
2022/02/16 03:32:22;;;;;;;107.60;49.00;;;;;;;1.78;82.58;98086.02;105795;1282;22554;-73
2022/02/16 03:34:50;;;;;;;94.00;46.90;;;;;;;1.82;82.49;98083.27;105689;1281;137983;-73
2022/02/16 03:37:17;;;;;;;90.30;43.80;;;;;;;1.87;82.56;98081.55;105879;1281;24326;-73
2022/02/16 03:39:44;;;;;;;101.60;44.50;;;;;;;1.92;82.48;98079.45;105748;1280;137699;-74
2022/02/16 03:42:14;;;;;;;95.80;46.00;;;;;;;1.98;82.53;98079.27;105963;1279;23424;-73
2022/02/16 03:44:42;;;;;;;97.40;45.90;;;;;;;2.02;82.44;98074.29;105783;1280;25275;-74
2022/02/16 03:47:09;;;;;;;92.00;46.00;;;;;;;2.07;82.39;98076.09;105739;1280;138242;-73
2022/02/16 03:49:37;;;;;;;88.50;43.90;;;;;;;2.12;82.24;98082.27;105830;1280;24402;-73
2022/02/16 03:52:04;;;;;;;90.50;43.10;;;;;;;2.16;82.18;98076.78;105742;1280;137813;-73
2022/02/16 03:54:31;;;;;;;90.90;42.80;;;;;;;2.21;82.02;98071.59;105971;1279;22744;-73
2022/02/16 03:56:59;;;;;;;94.40;45.10;;;;;;;2.23;81.80;98074.33;105788;1280;22576;-73
2022/02/16 03:59:26;;;;;;;90.90;43.80;;;;;;;2.24;81.68;98079.92;105677;1280;137980;-73
2022/02/16 04:02:09;;;;;;;101.00;48.00;;;;;;;2.26;81.56;98076.11;106078;1280;25425;-73
2022/02/16 04:04:36;;;;;;;96.30;45.00;;;;;;;2.27;81.52;98075.46;105801;1280;138436;-73
2022/02/16 04:07:03;;;;;;;89.30;45.00;;;;;;;2.28;81.44;98075.52;105646;1281;24231;-73
2022/02/16 04:09:30;;;;;;;90.50;44.20;;;;;;;2.29;81.55;98079.85;105847;1280;25268;-73
2022/02/16 04:11:58;;;;;;;93.60;44.90;;;;;;;2.30;81.62;98077.58;105814;1280;138558;-73
2022/02/16 04:14:25;;;;;;;88.90;44.80;;;;;;;2.31;81.61;98076.77;105970;1279;23189;-73
2022/02/16 04:16:52;;;;;;;94.40;46.00;;;;;;;2.30;81.44;98073.98;105715;1280;137681;-73
2022/02/16 04:19:19;;;;;;;102.90;49.60;;;;;;;2.26;81.08;98074.48;105930;1280;23943;-73
2022/02/16 04:21:46;;;;;;;98.10;50.00;;;;;;;2.09;80.09;98076.96;105894;1280;138510;-73
2022/02/16 04:24:14;;;;;;;95.60;45.30;;;;;;;1.95;80.56;98073.52;105724;1280;24435;-73
2022/02/16 04:26:42;;;;;;;96.90;44.50;;;;;;;1.91;81.00;98067.05;105840;1280;25267;-74
2022/02/16 04:29:09;;;;;;;93.00;47.10;;;;;;;1.89;81.17;98065.52;105630;1281;137666;-74
2022/02/16 04:31:39;;;;;;;96.80;48.80;;;;;;;1.84;81.11;98066.97;105954;1279;23330;-73
2022/02/16 04:34:07;;;;;;;105.80;52.20;;;;;;;1.81;81.47;98067.98;105683;1281;137862;-73
2022/02/16 04:36:34;;;;;;;100.70;49.80;;;;;;;1.80;81.65;98065.75;105736;1280;22566;-73
2022/02/16 04:39:03;;;;;;;97.90;48.70;;;;;;;1.81;81.65;98065.89;105865;1280;24275;-73
2022/02/16 04:41:33;;;;;;;98.20;48.70;;;;;;;1.83;81.85;98065.92;105708;1279;137472;-73
2022/02/16 04:44:02;;;;;;;103.20;49.80;;;;;;;1.87;81.93;98062.98;105686;1281;24433;-73
2022/02/16 04:46:30;;;;;;;94.00;47.40;;;;;;;1.88;81.98;98060.59;105742;1281;137648;-73
2022/02/16 04:48:57;;;;;;;109.60;50.50;;;;;;;1.87;81.90;98057.48;106272;1280;22573;-73
2022/02/16 04:51:24;;;;;;;101.90;48.90;;;;;;;1.87;82.04;98055.30;105876;1280;22551;-74
2022/02/16 04:53:51;;;;;;;100.60;49.70;;;;;;;1.88;82.08;98052.11;105454;1280;137840;-75
2022/02/16 04:56:19;;;;;;;101.40;48.20;;;;;;;1.88;82.23;98053.64;105487;1280;24258;-74
2022/02/16 04:58:48;;;;;;;102.00;51.80;;;;;;;1.88;82.43;98057.58;105368;1280;138252;-74
2022/02/16 05:01:20;;;;;;;105.10;50.40;;;;;;;1.88;82.45;98066.48;105531;1280;22572;-73
2022/02/16 05:03:48;;;;;;;115.60;54.30;;;;;;;1.87;82.58;98070.04;105568;1281;138035;-74
2022/02/16 05:06:15;;;;;;;115.60;54.30;;;;;;;1.90;82.73;98068.65;105504;1280;22920;-74
2022/02/16 05:08:57;;;;;;;101.50;49.80;;;;;;;1.93;82.66;98065.61;105463;1281;22626;-73
2022/02/16 05:11:25;;;;;;;113.00;51.90;;;;;;;1.94;82.79;98061.64;105421;1281;139568;-73
2022/02/16 05:14:01;;;;;;;103.70;52.30;;;;;;;1.95;82.87;98062.27;105581;1280;24245;-73
2022/02/16 05:16:29;;;;;;;120.70;54.50;;;;;;;1.95;83.03;98065.98;105668;1280;137621;-76
2022/02/16 05:18:59;;;;;;;120.80;59.20;;;;;;;1.98;83.15;98063.48;105789;1280;22566;-76
2022/02/16 05:21:28;;;;;;;122.70;58.70;;;;;;;2.02;83.03;98067.80;105775;1280;22556;-73
2022/02/16 05:23:55;;;;;;;121.60;56.20;;;;;;;2.04;82.85;98070.38;105778;1280;138537;-73
2022/02/16 05:26:24;;;;;;;119.10;54.40;;;;;;;2.03;82.68;98070.90;106076;1280;22564;-73
2022/02/16 05:28:51;;;;;;;116.80;56.90;;;;;;;2.02;82.66;98076.97;106027;1280;137664;-73
2022/02/16 05:31:19;;;;;;;118.60;56.40;;;;;;;2.00;82.83;98080.02;105882;1280;25275;-74
2022/02/16 05:33:46;;;;;;;113.40;55.10;;;;;;;1.99;82.79;98071.59;105722;1281;138532;-73
2022/02/16 05:36:17;;;;;;;126.10;59.10;;;;;;;2.00;83.00;98077.05;105849;1281;22717;-74
2022/02/16 05:38:45;;;;;;;122.50;59.90;;;;;;;2.03;83.12;98072.89;105915;1280;23471;-73
2022/02/16 05:41:14;;;;;;;120.70;56.10;;;;;;;2.07;82.98;98075.31;106041;1280;137920;-73
2022/02/16 05:43:41;;;;;;;115.20;55.00;;;;;;;2.10;82.96;98071.89;105941;1280;22579;-73
2022/02/16 05:46:11;;;;;;;127.30;57.40;;;;;;;2.14;82.92;98065.21;105689;1280;138068;-73
2022/02/16 05:48:39;;;;;;;121.10;54.70;;;;;;;2.14;82.97;98058.92;106193;1280;22751;-73
2022/02/16 05:51:20;;;;;;;115.00;53.50;;;;;;;2.12;82.84;98052.72;105895;1279;22569;-73
2022/02/16 05:53:47;;;;;;;112.10;51.60;;;;;;;2.13;83.13;98056.07;105852;1281;138800;-73
2022/02/16 05:56:14;;;;;;;109.30;49.80;;;;;;;2.13;83.18;98063.23;105848;1280;22607;-73
2022/02/16 05:58:41;;;;;;;105.60;49.80;;;;;;;2.15;83.28;98062.02;105474;1280;137661;-74
2022/02/16 06:01:08;;;;;;;104.70;50.90;;;;;;;2.17;83.49;98060.46;105699;1280;22170;-73
2022/02/16 06:03:52;;;;;;;104.80;50.10;;;;;;;2.19;83.40;98055.35;105868;1280;137797;-74
2022/02/16 06:06:21;;;;;;;107.60;52.50;;;;;;;2.19;83.47;98055.02;105593;1280;25266;-74
2022/02/16 06:08:49;;;;;;;107.70;50.40;;;;;;;2.19;83.39;98052.73;105842;1279;24230;-74
2022/02/16 06:11:16;;;;;;;106.50;50.80;;;;;;;2.20;83.52;98053.53;105616;1278;140911;-74
2022/02/16 06:13:44;;;;;;;106.80;50.40;;;;;;;2.21;83.59;98052.92;105493;1281;26560;-74
2022/02/16 06:16:14;;;;;;;105.80;50.80;;;;;;;2.25;83.68;98051.77;105314;1282;137887;-74
2022/02/16 06:18:41;;;;;;;104.90;53.10;;;;;;;2.26;83.52;98047.77;105793;1280;22651;-74
2022/02/16 06:21:08;;;;;;;114.00;54.70;;;;;;;2.23;83.01;98052.52;105810;1281;25377;-73
2022/02/16 06:23:36;;;;;;;120.40;56.20;;;;;;;2.17;83.05;98049.71;105790;1280;137678;-74
2022/02/16 06:26:04;;;;;;;113.90;53.70;;;;;;;2.16;83.16;98049.17;105896;1280;25456;-74
2022/02/16 06:28:31;;;;;;;112.10;52.90;;;;;;;2.15;83.05;98048.92;105835;1280;138551;-74
2022/02/16 06:31:01;;;;;;;116.30;54.10;;;;;;;2.14;83.41;98042.77;105974;1280;24301;-74
2022/02/16 06:33:28;;;;;;;;;;;;;;;2.17;83.63;98042.40;106203;1280;22538;-74
2022/02/16 06:35:55;;;;;;;111.10;54.50;;;;;;;2.17;83.61;98037.16;105704;1280;124197;-74
2022/02/16 06:38:22;;;;;;;123.80;57.70;;;;;;;2.16;83.82;98030.34;106315;1280;23093;-74
2022/02/16 06:40:50;;;;;;;120.20;55.40;;;;;;;2.18;83.98;98026.33;105974;1280;138917;-73
2022/02/16 06:43:17;;;;;;;118.20;55.20;;;;;;;2.20;83.96;98022.08;105786;1280;22853;-73
2022/02/16 06:45:44;;;;;;;112.20;53.80;;;;;;;2.26;84.21;98025.50;105826;1280;140524;-73
2022/02/16 06:48:11;;;;;;;123.60;57.60;;;;;;;2.32;84.23;98019.46;105959;1280;24317;-74
2022/02/16 06:50:53;;;;;;;122.90;57.50;;;;;;;2.38;84.09;98020.85;105903;1280;22740;-73
2022/02/16 06:53:20;;;;;;;131.90;60.70;;;;;;;2.42;84.09;98017.88;105994;1280;137676;-73
2022/02/16 06:55:48;;;;;;;131.10;61.80;;;;;;;2.48;83.97;98016.65;105962;1280;24259;-73
2022/02/16 06:58:16;;;;;;;128.70;60.60;;;;;;;2.52;83.85;98006.11;105801;1279;138567;-73
2022/02/16 07:00:44;;;;;;;127.10;61.60;;;;;;;2.53;83.58;98005.91;105987;1280;22575;-73
2022/02/16 07:03:13;;;;;;;121.30;61.30;;;;;;;2.52;83.51;98002.11;105971;1280;24285;-73
2022/02/16 07:05:44;;;;;;;133.40;62.70;;;;;;;2.52;83.23;98003.39;105822;1280;137662;-74
2022/02/16 07:08:30;;;;;;;119.80;60.70;;;;;;;2.43;82.96;98002.02;105761;1281;25323;-73
2022/02/16 07:10:59;;;;;;;132.80;63.00;;;;;;;2.34;82.96;97992.56;105755;1280;139876;-74
2022/02/16 07:13:26;;;;;;;124.70;63.40;;;;;;;2.26;82.94;97993.01;105694;1281;22595;-74
2022/02/16 07:15:53;;;;;;;118.50;59.20;;;;;;;2.20;83.20;97985.02;106172;1280;138906;-74
2022/02/16 07:18:21;;;;;;;118.30;57.70;;;;;;;2.20;83.51;97979.30;106066;1281;22658;-73
2022/02/16 07:20:51;;;;;;;118.00;58.20;;;;;;;2.22;83.69;97978.58;105821;1281;22585;-73
2022/02/16 07:23:19;;;;;;;119.80;58.80;;;;;;;2.23;83.80;97970.27;105782;1280;137623;-73
2022/02/16 07:26:00;;;;;;;128.20;59.80;;;;;;;2.28;83.92;97966.09;105963;1280;25427;-74
2022/02/16 07:28:32;;;;;;;119.00;57.10;;;;;;;2.32;83.75;97962.52;106013;1280;138536;-74
2022/02/16 07:31:00;;;;;;;121.80;56.40;;;;;;;2.38;83.82;97963.54;105841;1280;22719;-73
2022/02/16 07:33:28;;;;;;;110.80;56.50;;;;;;;2.44;83.66;97962.53;106130;1280;25476;-73
2022/02/16 07:35:55;;;;;;;115.40;57.60;;;;;;;2.47;83.67;97962.95;105691;1281;137456;-73
2022/02/16 07:38:23;;;;;;;124.10;61.50;;;;;;;2.47;83.29;97964.07;105960;1281;22556;-73
2022/02/16 07:40:51;;;;;;;127.30;61.90;;;;;;;2.47;83.46;97963.32;105784;1281;137847;-73
2022/02/16 07:43:21;;;;;;;146.80;65.50;;;;;;;2.46;83.40;97964.85;105931;1281;22611;-74
2022/02/16 07:46:09;;;;;;;133.60;64.20;;;;;;;2.50;83.54;97956.87;105877;1280;140464;-73
2022/02/16 07:48:37;;;;;;;126.70;59.30;;;;;;;2.56;83.63;97959.81;106253;1280;22566;-73
2022/02/16 07:51:44;;;;;;;108.60;53.00;;;;;;;2.62;83.61;97962.59;105961;1278;137858;-74
2022/02/16 07:54:22;;;;;;;113.50;55.30;;;;;;;2.67;83.80;97956.79;106031;1279;23979;-74
2022/02/16 07:56:53;;;;;;;114.10;55.80;;;;;;;2.71;83.78;97959.95;105903;1282;22583;-73
2022/02/16 07:59:21;;;;;;;106.20;55.60;;;;;;;2.74;83.86;97956.75;105756;1280;138703;-73
2022/02/16 08:01:48;;;;;;;120.30;53.30;;;;;;;2.78;83.69;97951.96;105814;1281;24263;-74
2022/02/16 08:04:16;;;;;;;114.40;51.80;;;;;;;2.83;83.89;97948.02;105829;1280;138002;-74
2022/02/16 08:06:47;;;;;;;120.60;53.90;;;;;;;2.89;83.88;97948.64;105918;1280;29946;-74
2022/02/16 08:09:15;;;;;;;109.20;51.60;;;;;;;2.96;84.07;97950.41;105941;1280;25390;-74
2022/02/16 08:11:44;;;;;;;106.70;52.90;;;;;;;3.02;84.10;97951.73;105733;1280;140667;-74
2022/02/16 08:14:12;;;;;;;107.10;50.80;;;;;;;3.09;84.14;97944.44;105875;1280;24393;-74
2022/02/16 08:16:55;;;;;;;100.90;49.40;;;;;;;3.17;84.26;97938.14;105941;1281;137966;-74
2022/02/16 08:19:23;;;;;;;97.90;48.50;;;;;;;3.28;84.51;97929.04;106051;1280;23513;-74
2022/02/16 08:21:55;;;;;;;93.90;47.20;;;;;;;3.38;84.47;97925.11;106085;1280;137758;-74
2022/02/16 08:24:23;;;;;;;99.80;48.00;;;;;;;3.47;84.42;97927.98;105917;1281;24187;-74
2022/02/16 08:26:53;;;;;;;92.40;47.10;;;;;;;3.56;84.21;97928.11;105987;1280;22569;-74
2022/02/16 08:29:24;;;;;;;97.00;46.40;;;;;;;3.66;84.13;97929.60;106074;1280;138210;-74
2022/02/16 08:32:05;;;;;;;86.80;45.80;;;;;;;3.78;83.97;97931.05;105950;1280;25264;-74
2022/02/16 08:34:51;;;;;;;91.90;45.80;;;;;;;3.90;83.78;97926.30;105773;1279;138751;-74
2022/02/16 08:37:22;;;;;;;88.50;46.80;;;;;;;4.00;83.79;97919.58;106149;1281;31406;-73
2022/02/16 08:39:49;;;;;;;99.00;48.40;;;;;;;4.09;83.62;97917.58;105883;1281;137857;-74
2022/02/16 08:42:16;;;;;;;90.00;48.10;;;;;;;4.18;83.30;97912.67;106419;1281;23182;-74
2022/02/16 08:44:43;;;;;;;91.80;44.40;;;;;;;4.30;83.34;97908.00;106433;1280;22706;-74
2022/02/16 08:47:10;;;;;;;78.80;41.80;;;;;;;4.42;83.21;97901.34;106293;1280;140373;-74
2022/02/16 08:49:43;;;;;;;70.70;39.50;;;;;;;4.52;82.98;97896.99;106343;1279;25329;-74
2022/02/16 08:52:11;;;;;;;92.40;44.40;;;;;;;4.64;82.94;97893.21;106378;1280;137656;-74
2022/02/16 08:54:38;;;;;;;84.40;44.40;;;;;;;4.75;82.91;97884.88;106128;1280;22566;-74
2022/02/16 08:57:06;;;;;;;81.70;42.50;;;;;;;4.87;82.69;97875.06;106550;1280;22548;-74
2022/02/16 08:59:34;;;;;;;73.50;39.00;;;;;;;5.01;82.46;97869.81;106168;1280;137961;-74
2022/02/16 09:02:01;;;;;;;64.90;34.50;;;;;;;5.15;82.15;97869.88;105902;1280;25221;-74
2022/02/16 09:04:29;;;;;;;56.70;32.30;;;;;;;5.28;81.63;97869.85;105974;1280;139021;-74
2022/02/16 09:09:43;;;;;;;48.40;22.30;;;;;;;5.64;79.56;97868.17;105742;1281;144610;-74
2022/02/16 09:12:11;;;;;;;41.90;21.00;;;;;;;5.83;78.76;97870.33;105800;1281;22564;-76
2022/02/16 09:14:38;;;;;;;34.50;17.50;;;;;;;6.02;78.28;97862.94;106050;1281;25344;-74
2022/02/16 09:17:06;;;;;;;30.60;15.30;;;;;;;6.21;77.59;97860.63;105844;1280;137700;-74
2022/02/16 09:19:34;;;;;;;28.90;15.80;;;;;;;6.40;76.19;97858.87;105839;1281;25561;-74
2022/02/16 09:22:01;;;;;;;26.90;14.30;;;;;;;6.58;75.21;97852.98;105922;1280;138098;-74
2022/02/16 09:24:29;;;;;;;31.90;14.70;;;;;;;6.74;73.71;97856.48;105986;1280;24254;-74
2022/02/16 09:26:56;;;;;;;24.60;13.40;;;;;;;6.87;72.73;97847.62;105998;1280;22576;-74
2022/02/16 09:29:37;;;;;;;23.00;12.70;;;;;;;7.00;71.81;97848.30;105822;1280;138001;-74
2022/02/16 09:32:04;;;;;;;23.80;13.00;;;;;;;7.09;71.05;97843.42;105831;1281;25316;-74
2022/02/16 09:34:32;;;;;;;24.50;13.50;;;;;;;7.16;69.75;97840.49;105968;1280;138203;-74
2022/02/16 09:36:59;;;;;;;24.80;15.20;;;;;;;7.22;70.03;97839.75;106210;1280;22589;-74
2022/02/16 09:39:26;;;;;;;25.10;13.80;;;;;;;7.28;70.12;97837.09;105896;1280;23054;-74
2022/02/16 09:41:55;;;;;;;21.50;12.40;;;;;;;7.34;70.09;97830.45;105831;1280;137857;-74
2022/02/16 09:44:27;;;;;;;22.10;11.50;;;;;;;7.38;69.71;97831.73;107258;1280;22570;-74
2022/02/16 09:46:54;;;;;;;20.00;10.80;;;;;;;7.41;68.77;97822.73;106190;1280;137774;-74
2022/02/16 09:49:22;;;;;;;19.00;10.90;;;;;;;7.43;68.63;97825.55;106077;1281;371318;-74
2022/02/16 09:52:05;;;;;;;21.20;12.10;;;;;;;7.46;68.58;97821.03;106309;1280;139082;-74
2022/02/16 09:54:32;;;;;;;21.00;11.30;;;;;;;7.47;68.09;97818.79;106664;1280;24251;-74
2022/02/16 09:56:59;;;;;;;15.10;9.00;;;;;;;7.49;67.86;97816.83;106272;1281;23956;-74
2022/02/16 09:59:26;;;;;;;19.00;10.30;;;;;;;7.50;66.95;97814.47;105888;1280;137638;-74
2022/02/16 10:01:59;;;;;;;18.50;10.20;;;;;;;7.52;67.03;97809.56;106211;1280;22542;-74
2022/02/16 10:04:28;;;;;;;16.90;9.00;;;;;;;7.53;66.60;97805.86;106080;1281;137783;-74
2022/02/16 10:06:56;;;;;;;17.30;9.80;;;;;;;7.55;66.90;97796.14;105997;1281;22554;-74
2022/02/16 10:09:35;;;;;;;17.10;10.20;;;;;;;7.58;66.75;97796.03;105883;1280;31780;-75
2022/02/16 10:12:04;;;;;;;15.90;9.40;;;;;;;7.64;66.36;97790.48;106060;1280;137565;-74
2022/02/16 10:14:38;;;;;;;13.60;8.80;;;;;;;7.71;66.45;97781.96;105738;1283;22833;-74
2022/02/16 10:17:25;;;;;;;15.00;9.00;;;;;;;7.78;66.34;97777.04;105806;1280;137465;-74
2022/02/16 10:19:53;;;;;;;47.80;21.10;;;;;;;7.88;66.02;97770.72;105848;1281;30596;-74
2022/02/16 10:22:23;;;;;;;18.30;9.40;;;;;;;7.97;65.96;97766.55;105708;1281;138272;-74
2022/02/16 10:24:51;;;;;;;16.90;9.80;;;;;;;8.06;65.57;97757.08;105741;1280;22736;-74
2022/02/16 10:27:19;;;;;;;29.20;11.50;;;;;;;8.17;65.31;97755.68;106046;1281;22575;-74
2022/02/16 10:29:46;;;;;;;25.30;10.80;;;;;;;8.28;64.70;97749.55;105681;1280;137657;-74
2022/02/16 10:32:32;;;;;;;14.60;8.50;;;;;;;8.37;64.84;97739.06;105703;1281;22554;-74
2022/02/16 10:34:59;;;;;;;10.40;6.40;;;;;;;8.54;64.11;97735.11;105546;1281;137518;-74
2022/02/16 10:37:36;;;;;;;10.70;6.60;;;;;;;8.72;63.59;97732.15;105693;1281;24447;-74
2022/02/16 10:40:17;;;;;;;12.20;6.20;;;;;;;8.90;62.46;97724.40;105563;1281;137752;-74
2022/02/16 10:43:02;;;;;;;9.90;5.60;;;;;;;9.04;62.39;97723.82;105728;1281;24324;-74
2022/02/16 10:45:31;;;;;;;10.70;6.60;;;;;;;9.19;61.80;97718.13;105690;1281;22585;-74
2022/02/16 10:48:13;;;;;;;13.20;7.70;;;;;;;9.34;61.61;97706.99;105588;1281;137494;-74
2022/02/16 10:50:54;;;;;;;13.10;7.70;;;;;;;9.47;61.48;97698.09;105726;1280;32475;-74
2022/02/16 10:53:34;;;;;;;11.30;6.60;;;;;;;9.62;61.51;97697.05;105526;1280;137533;-74
2022/02/16 10:56:07;;;;;;;14.50;6.60;;;;;;;9.74;60.49;97688.41;105608;1283;22616;-74
2022/02/16 10:58:35;;;;;;;12.20;7.10;;;;;;;9.84;59.56;97684.84;105740;1280;137893;-74
2022/02/16 11:01:02;;;;;;;10.00;6.00;;;;;;;9.90;59.19;97670.85;105796;1280;22555;-74
2022/02/16 11:03:32;;;;;;;8.20;5.60;;;;;;;9.96;57.31;97664.11;105795;1280;22561;-74
2022/02/16 11:06:04;;;;;;;7.20;4.60;;;;;;;9.96;55.40;97653.39;105696;1280;138060;-74
2022/02/16 11:08:46;;;;;;;6.40;4.20;;;;;;;9.94;54.94;97651.25;105794;1281;22593;-74
2022/02/16 11:11:16;;;;;;;14.40;5.70;;;;;;;9.95;54.56;97646.16;105578;1280;137367;-74
2022/02/16 11:13:44;;;;;;;7.80;5.10;;;;;;;9.95;54.31;97641.76;105863;1280;24370;-74
2022/02/16 11:16:12;;;;;;;14.80;7.60;;;;;;;9.95;53.66;97639.68;105799;1280;137566;-74
2022/02/16 11:18:46;;;;;;;12.60;7.50;;;;;;;9.95;53.25;97628.90;105921;1280;22562;-75
2022/02/16 11:21:16;;;;;;;12.00;6.10;;;;;;;9.98;53.29;97624.63;105793;1280;22564;-75
2022/02/16 11:23:47;;;;;;;13.80;6.90;;;;;;;10.03;53.65;97620.64;105889;1280;138845;-75
2022/02/16 11:26:29;;;;;;;23.50;11.80;;;;;;;10.10;53.15;97613.41;105959;1279;25273;-75